createdAt,value
2023-01-05T00:03:14.199Z,36.30
2023-01-05T00:08:13.607Z,41.38
2023-01-05T00:13:31.261Z,43.65
2023-01-05T00:18:47.444Z,42.35
2023-01-05T00:23:47.370Z,46.85
2023-01-05T00:28:47.549Z,50.80
2023-01-05T00:33:46.333Z,54.20
2023-01-05T00:38:45.205Z,54.60
2023-01-05T00:43:44.069Z,50.13
2023-01-05T00:48:44.356Z,55.45
2023-01-05T00:53:43.122Z,55.10
2023-01-05T00:58:41.867Z,52.47
2023-01-05T01:03:41.489Z,60.70
2023-01-05T01:08:42.646Z,47.55
2023-01-05T01:13:41.397Z,49.70
2023-01-05T01:18:40.467Z,47.60
2023-01-05T01:23:39.295Z,47.67
2023-01-05T01:28:40.200Z,48.75
2023-01-05T01:33:40.832Z,46.20
2023-01-05T01:38:39.875Z,54.17
2023-01-05T01:43:46.262Z,49.45
2023-01-05T01:48:52.163Z,55.72
2023-01-05T01:53:54.015Z,48.13
2023-01-05T01:58:55.418Z,49.58
2023-01-05T02:03:55.223Z,50.50
2023-01-05T02:08:54.847Z,49.67
2023-01-05T02:14:09.164Z,50.65
2023-01-05T02:19:36.989Z,44.88
2023-01-05T02:24:52.805Z,51.58
2023-01-05T02:30:16.379Z,45.92
2023-01-05T02:35:28.509Z,48.97
2023-01-05T02:40:33.214Z,56.40
2023-01-05T02:45:32.527Z,45.65
2023-01-05T02:50:39.799Z,42.22
2023-01-05T02:55:46.540Z,48.95
2023-01-05T03:00:51.938Z,49.33
2023-01-05T03:05:59.665Z,51.20
2023-01-05T03:11:20.564Z,44.75
2023-01-05T03:16:26.548Z,52.55
2023-01-05T03:21:30.733Z,49.97
2023-01-05T03:26:50.331Z,51.05
2023-01-05T03:32:10.220Z,47.70
2023-01-05T03:37:16.675Z,44.60
2023-01-05T03:42:17.333Z,44.42
2023-01-05T03:47:16.501Z,45.20
2023-01-05T03:52:17.992Z,42.72
2023-01-05T03:57:17.445Z,44.70
2023-01-05T04:02:17.082Z,43.15
2023-01-05T04:07:18.649Z,41.90
2023-01-05T04:12:17.652Z,41.00
2023-01-05T04:17:17.584Z,39.72
2023-01-05T04:22:23.671Z,38.83
2023-01-05T04:27:27.187Z,38.10
2023-01-05T04:32:26.111Z,44.40
2023-01-05T04:37:27.144Z,44.45
2023-01-05T04:42:26.502Z,46.88
2023-01-05T04:47:27.308Z,59.38
2023-01-05T04:52:29.285Z,42.03
2023-01-05T04:57:28.856Z,42.13
2023-01-05T05:02:28.084Z,44.85
2023-01-05T05:07:28.584Z,46.97
2023-01-05T05:12:27.471Z,47.20
2023-01-05T05:17:26.428Z,49.25
2023-01-05T05:22:26.507Z,50.03
2023-01-05T05:27:26.764Z,41.92
2023-01-05T05:32:27.175Z,47.90
2023-01-05T05:37:25.926Z,56.72
2023-01-05T05:42:26.193Z,49.55
2023-01-05T05:47:25.100Z,45.03
2023-01-05T05:52:24.042Z,47.60
2023-01-05T05:57:22.900Z,51.65
2023-01-05T06:02:23.114Z,52.55
2023-01-05T06:07:21.877Z,49.20
2023-01-05T06:12:20.705Z,56.28
2023-01-05T06:17:19.698Z,64.80
2023-01-05T06:22:19.822Z,57.08
2023-01-05T06:27:18.563Z,55.33
2023-01-05T06:32:17.424Z,57.08
2023-01-05T06:37:16.304Z,55.65
2023-01-05T06:42:23.023Z,57.75
2023-01-05T06:47:22.367Z,50.85
2023-01-05T06:52:21.235Z,49.00
2023-01-05T06:57:21.429Z,53.78
2023-01-05T07:02:20.251Z,66.75
2023-01-05T07:07:19.102Z,50.72
2023-01-05T07:12:18.064Z,51.42
2023-01-05T07:17:18.301Z,52.45
2023-01-05T07:22:16.989Z,52.28
2023-01-05T07:27:15.761Z,53.47
2023-01-05T07:32:14.527Z,51.90
2023-01-05T07:37:14.667Z,49.22
2023-01-05T07:42:13.503Z,47.92
2023-01-05T07:47:13.538Z,55.55
2023-01-05T07:52:12.321Z,49.20
2023-01-05T07:57:12.560Z,46.03
2023-01-05T08:02:12.142Z,43.55
2023-01-05T08:07:11.687Z,39.53
2023-01-05T08:12:10.529Z,41.70
2023-01-05T08:17:11.491Z,43.55
2023-01-05T08:22:10.299Z,41.47
2023-01-05T08:27:09.574Z,38.58
2023-01-05T08:32:08.866Z,38.90
2023-01-05T08:37:09.170Z,42.70
2023-01-05T08:42:07.949Z,42.78
2023-01-05T08:47:06.723Z,41.22
2023-01-05T08:52:07.500Z,43.72
2023-01-05T08:57:07.749Z,36.08
2023-01-05T09:02:06.711Z,37.17
2023-01-05T09:07:05.806Z,38.05
2023-01-05T09:12:04.918Z,39.92
2023-01-05T09:17:07.452Z,38.85
2023-01-05T09:22:06.573Z,37.72
2023-01-05T09:27:07.712Z,36.22
2023-01-05T09:32:09.764Z,41.15
2023-01-05T09:37:08.681Z,39.42
2023-01-05T09:42:13.196Z,36.03
2023-01-05T09:47:19.452Z,37.95
2023-01-05T09:52:22.460Z,41.83
2023-01-05T09:57:25.080Z,40.65
2023-01-05T10:02:33.972Z,40.38
2023-01-05T10:07:41.579Z,41.47
2023-01-05T10:13:03.501Z,40.15
2023-01-05T10:18:11.758Z,37.83
2023-01-05T10:23:19.927Z,35.60
2023-01-05T10:28:29.966Z,36.05
2023-01-05T10:33:53.589Z,39.85
2023-01-05T10:39:00.943Z,35.83
2023-01-05T10:44:22.254Z,31.23
2023-01-05T10:49:26.960Z,31.50
2023-01-05T10:54:35.413Z,34.63
2023-01-05T10:59:34.282Z,28.13
2023-01-05T11:04:35.824Z,25.00
2023-01-05T11:09:41.496Z,26.05
2023-01-05T11:14:44.773Z,24.60
2023-01-05T11:19:48.149Z,54.28
2023-01-05T11:24:51.149Z,32.95
2023-01-05T11:35:19.715Z,28.08
2023-01-05T11:40:20.489Z,26.60
2023-01-05T11:45:22.157Z,24.17
2023-01-05T11:50:26.142Z,28.83
2023-01-05T11:55:34.017Z,28.17
2023-01-05T12:00:40.271Z,20.23
2023-01-05T12:05:49.810Z,20.00
2023-01-05T12:11:01.782Z,21.17
2023-01-05T12:16:13.804Z,26.13
2023-01-05T12:21:23.892Z,16.65
2023-01-05T12:26:28.286Z,30.70
2023-01-05T12:37:23.832Z,16.20
2023-01-05T12:42:54.351Z,15.80
2023-01-05T12:47:59.794Z,16.77
2023-01-05T12:53:08.952Z,15.75
2023-01-05T12:58:15.107Z,15.07
2023-01-05T13:03:23.812Z,14.68
2023-01-05T13:08:28.430Z,12.35
2023-01-05T13:13:32.230Z,12.73
2023-01-05T13:18:33.950Z,10.52
2023-01-05T13:23:38.738Z,11.10
2023-01-05T13:28:38.709Z,12.90
2023-01-05T13:33:57.243Z,16.13
2023-01-05T13:39:28.298Z,11.68
2023-01-05T13:45:05.344Z,11.55
2023-01-05T13:50:27.597Z,12.80
2023-01-05T13:55:28.767Z,10.77
2023-01-05T14:00:30.381Z,9.40
2023-01-05T14:05:33.453Z,13.45
2023-01-05T14:10:35.281Z,11.77
2023-01-05T14:15:40.434Z,13.48
2023-01-05T14:20:47.139Z,19.55
2023-01-05T14:25:52.858Z,19.55
2023-01-05T14:30:52.972Z,17.63
2023-01-05T14:35:51.754Z,16.52
2023-01-05T14:40:55.927Z,18.58
2023-01-05T14:46:06.054Z,13.13
2023-01-05T14:51:14.485Z,14.88
2023-01-05T14:56:21.105Z,15.05
2023-01-05T15:01:25.775Z,11.32
2023-01-05T15:06:36.763Z,12.95
2023-01-05T15:11:49.140Z,12.57
2023-01-05T15:17:15.852Z,13.15
2023-01-05T15:22:37.937Z,14.07
2023-01-05T15:28:13.154Z,16.57
2023-01-05T15:33:22.015Z,13.90
2023-01-05T15:38:22.753Z,14.65
2023-01-05T15:43:22.411Z,12.13
2023-01-05T15:48:28.946Z,15.27
2023-01-05T15:53:32.014Z,13.00
2023-01-05T16:03:33.466Z,16.92
2023-01-05T16:08:35.014Z,23.10
2023-01-05T16:13:38.470Z,21.83
2023-01-05T16:18:45.984Z,15.30
2023-01-05T16:23:50.322Z,15.48
2023-01-05T16:28:49.054Z,19.75
2023-01-05T16:34:03.535Z,16.55
2023-01-05T16:39:24.174Z,17.65
2023-01-05T16:44:22.975Z,12.25
2023-01-05T16:49:39.107Z,19.67
2023-01-05T16:54:44.386Z,10.55
2023-01-05T16:59:46.941Z,11.70
2023-01-05T17:04:48.777Z,10.18
2023-01-05T17:09:47.828Z,14.95
2023-01-05T17:14:46.870Z,20.95
2023-01-05T17:19:51.539Z,21.88
2023-01-05T17:24:50.742Z,17.20
2023-01-05T17:29:49.545Z,24.10
2023-01-05T17:34:50.856Z,17.20
2023-01-05T17:39:49.661Z,16.83
2023-01-05T17:44:48.392Z,20.95
2023-01-05T17:49:47.222Z,28.70
2023-01-05T17:54:47.349Z,25.45
2023-01-05T17:59:46.103Z,29.30
2023-01-05T18:04:44.861Z,25.88
2023-01-05T18:09:43.666Z,18.95
2023-01-05T18:14:44.956Z,21.23
2023-01-05T18:19:43.893Z,17.98
2023-01-05T18:24:43.839Z,17.95
2023-01-05T18:29:45.429Z,17.15
2023-01-05T18:34:44.300Z,13.63
2023-01-05T18:39:43.466Z,15.48
2023-01-05T18:44:43.706Z,14.18
2023-01-05T18:49:42.452Z,12.82
2023-01-05T18:54:41.288Z,16.63
2023-01-05T18:59:40.164Z,14.98
2023-01-05T19:04:40.301Z,14.73
2023-01-05T19:09:39.314Z,13.27
2023-01-05T19:14:38.220Z,12.55
2023-01-05T19:19:37.166Z,13.02
2023-01-05T19:24:37.437Z,12.60
2023-01-05T19:29:36.227Z,13.25
2023-01-05T19:34:35.075Z,11.82
2023-01-05T19:39:34.770Z,14.23
2023-01-05T19:44:35.098Z,11.68
2023-01-05T19:49:34.498Z,13.57
2023-01-05T19:54:33.417Z,16.40
2023-01-05T19:59:34.096Z,32.13
2023-01-05T20:04:34.744Z,19.58
2023-01-05T20:09:33.791Z,21.52
2023-01-05T20:14:34.379Z,29.73
2023-01-05T20:19:36.651Z,21.13
2023-01-05T20:24:37.443Z,24.65
2023-01-05T20:29:36.412Z,16.65
2023-01-05T20:34:39.252Z,14.88
2023-01-05T20:39:40.201Z,16.67
2023-01-05T20:44:41.755Z,15.50
2023-01-05T20:49:42.675Z,16.58
2023-01-05T20:54:42.334Z,18.10
2023-01-05T20:59:41.507Z,17.15
2023-01-05T21:04:42.146Z,17.73
2023-01-05T21:09:42.641Z,20.80
2023-01-05T21:14:41.411Z,15.20
2023-01-05T21:19:41.607Z,29.05
2023-01-05T21:24:42.200Z,21.98
2023-01-05T21:29:41.084Z,21.30
2023-01-05T21:34:41.290Z,17.95
2023-01-05T21:39:40.163Z,22.60
2023-01-05T21:44:39.894Z,19.58
2023-01-05T21:49:38.703Z,15.30
2023-01-05T21:54:56.253Z,16.98
2023-01-05T21:59:55.309Z,13.93
2023-01-05T22:04:54.066Z,15.10
2023-01-05T22:09:54.200Z,13.90
2023-01-05T22:14:52.957Z,15.57
2023-01-05T22:19:53.391Z,15.32
2023-01-05T22:24:53.574Z,22.00
2023-01-05T22:29:52.571Z,22.70
2023-01-05T22:34:51.403Z,18.45
2023-01-05T22:39:50.221Z,15.25
2023-01-05T22:44:50.407Z,17.27
2023-01-05T22:49:49.293Z,23.38
2023-01-05T22:54:48.069Z,25.13
2023-01-05T22:59:46.941Z,25.40
2023-01-05T23:04:47.282Z,17.08
2023-01-05T23:09:46.089Z,24.60
2023-01-05T23:14:44.851Z,21.63
2023-01-05T23:19:43.549Z,19.00
2023-01-05T23:24:43.764Z,22.02
2023-01-05T23:29:42.561Z,17.15
2023-01-05T23:34:41.316Z,15.80
2023-01-05T23:39:40.114Z,16.27
2023-01-05T23:44:40.249Z,16.45
2023-01-05T23:49:40.121Z,18.80
2023-01-05T23:54:39.082Z,16.90
2023-01-05T23:59:39.222Z,16.13
